sensor_id;sensor_type;location;lat;lon;timestamp;pressure;altitude;pressure_sealevel;temperature;humidity
80321;BME280;69633;47.066;15.450;2023-07-08T00:00:54;98207.50;;;18.56;67.05
80321;BME280;69633;47.066;15.450;2023-07-08T00:03:20;98203.63;;;18.54;67.70
80321;BME280;69633;47.066;15.450;2023-07-08T00:05:50;98201.97;;;18.46;67.73
80321;BME280;69633;47.066;15.450;2023-07-08T00:08:20;98195.72;;;18.38;67.81
80321;BME280;69633;47.066;15.450;2023-07-08T00:10:46;98196.44;;;18.35;68.06
80321;BME280;69633;47.066;15.450;2023-07-08T00:13:12;98194.88;;;18.34;67.98
80321;BME280;69633;47.066;15.450;2023-07-08T00:15:39;98196.69;;;18.26;68.56
80321;BME280;69633;47.066;15.450;2023-07-08T00:18:12;98197.47;;;18.27;68.25
80321;BME280;69633;47.066;15.450;2023-07-08T00:20:39;98193.66;;;18.28;68.41
80321;BME280;69633;47.066;15.450;2023-07-08T00:23:08;98185.59;;;18.28;68.08
80321;BME280;69633;47.066;15.450;2023-07-08T00:25:35;98187.81;;;18.22;67.68
80321;BME280;69633;47.066;15.450;2023-07-08T00:28:02;98180.75;;;18.11;67.54
80321;BME280;69633;47.066;15.450;2023-07-08T00:30:30;98177.63;;;18.09;67.84
80321;BME280;69633;47.066;15.450;2023-07-08T00:32:58;98175.63;;;18.02;67.96
80321;BME280;69633;47.066;15.450;2023-07-08T00:35:36;98172.84;;;17.95;68.25
80321;BME280;69633;47.066;15.450;2023-07-08T00:40:51;98173.63;;;17.96;68.32
80321;BME280;69633;47.066;15.450;2023-07-08T00:43:23;98170.53;;;17.97;68.31
80321;BME280;69633;47.066;15.450;2023-07-08T00:46:03;98169.81;;;18.00;68.11
80321;BME280;69633;47.066;15.450;2023-07-08T00:48:39;98172.88;;;17.99;68.32
80321;BME280;69633;47.066;15.450;2023-07-08T00:51:08;98171.31;;;17.98;68.22
80321;BME280;69633;47.066;15.450;2023-07-08T00:53:40;98174.78;;;17.98;68.39
80321;BME280;69633;47.066;15.450;2023-07-08T00:59:21;98174.19;;;17.85;68.41
80321;BME280;69633;47.066;15.450;2023-07-08T01:01:49;98171.78;;;17.77;68.35
80321;BME280;69633;47.066;15.450;2023-07-08T01:07:09;98174.38;;;17.73;68.57
80321;BME280;69633;47.066;15.450;2023-07-08T01:09:43;98175.59;;;17.76;68.58
80321;BME280;69633;47.066;15.450;2023-07-08T01:12:35;98174.81;;;17.75;68.49
80321;BME280;69633;47.066;15.450;2023-07-08T01:15:07;98169.84;;;17.77;68.32
80321;BME280;69633;47.066;15.450;2023-07-08T01:17:33;98169.16;;;17.80;68.32
80321;BME280;69633;47.066;15.450;2023-07-08T01:20:06;98165.00;;;17.86;68.02
80321;BME280;69633;47.066;15.450;2023-07-08T01:22:37;98174.25;;;17.89;67.54
80321;BME280;69633;47.066;15.450;2023-07-08T01:25:07;98169.72;;;17.93;67.16
80321;BME280;69633;47.066;15.450;2023-07-08T01:27:37;98172.06;;;17.95;66.96
80321;BME280;69633;47.066;15.450;2023-07-08T01:30:10;98162.13;;;17.99;66.74
80321;BME280;69633;47.066;15.450;2023-07-08T01:32:43;98167.19;;;18.04;66.65
80321;BME280;69633;47.066;15.450;2023-07-08T01:35:15;98170.59;;;18.01;66.50
80321;BME280;69633;47.066;15.450;2023-07-08T01:38:10;98167.63;;;18.06;66.55
80321;BME280;69633;47.066;15.450;2023-07-08T01:40:50;98171.84;;;18.07;66.54
80321;BME280;69633;47.066;15.450;2023-07-08T01:43:17;98170.31;;;18.06;66.57
80321;BME280;69633;47.066;15.450;2023-07-08T01:45:45;98172.56;;;18.04;66.54
80321;BME280;69633;47.066;15.450;2023-07-08T01:48:19;98165.31;;;18.08;66.49
80321;BME280;69633;47.066;15.450;2023-07-08T01:50:56;98169.47;;;18.02;66.57
80321;BME280;69633;47.066;15.450;2023-07-08T01:53:31;98177.00;;;17.93;66.77
80321;BME280;69633;47.066;15.450;2023-07-08T01:55:59;98175.03;;;17.90;67.10
80321;BME280;69633;47.066;15.450;2023-07-08T01:58:24;98173.47;;;17.88;66.97
80321;BME280;69633;47.066;15.450;2023-07-08T02:00:51;98184.59;;;17.87;67.16
80321;BME280;69633;47.066;15.450;2023-07-08T02:03:18;98178.41;;;17.83;67.26
80321;BME280;69633;47.066;15.450;2023-07-08T02:05:46;98186.50;;;17.86;67.16
80321;BME280;69633;47.066;15.450;2023-07-08T02:08:15;98178.03;;;17.84;67.17
80321;BME280;69633;47.066;15.450;2023-07-08T02:10:41;98175.47;;;17.92;67.21
80321;BME280;69633;47.066;15.450;2023-07-08T02:13:07;98181.97;;;17.91;67.03
80321;BME280;69633;47.066;15.450;2023-07-08T02:15:33;98178.97;;;17.96;66.74
80321;BME280;69633;47.066;15.450;2023-07-08T02:17:58;98178.97;;;17.96;66.89
80321;BME280;69633;47.066;15.450;2023-07-08T02:20:26;98178.59;;;17.97;66.96
80321;BME280;69633;47.066;15.450;2023-07-08T02:22:53;98185.06;;;17.93;67.42
80321;BME280;69633;47.066;15.450;2023-07-08T02:25:18;98185.25;;;17.80;67.56
80321;BME280;69633;47.066;15.450;2023-07-08T02:27:43;98174.75;;;17.72;67.98
80321;BME280;69633;47.066;15.450;2023-07-08T02:30:10;98191.06;;;17.60;68.58
80321;BME280;69633;47.066;15.450;2023-07-08T02:32:38;98181.34;;;17.55;68.65
80321;BME280;69633;47.066;15.450;2023-07-08T02:35:06;98184.50;;;17.57;68.65
80321;BME280;69633;47.066;15.450;2023-07-08T02:37:35;98186.72;;;17.55;68.30
80321;BME280;69633;47.066;15.450;2023-07-08T02:40:02;98181.09;;;17.60;68.17
80321;BME280;69633;47.066;15.450;2023-07-08T02:42:28;98185.72;;;17.63;67.68
80321;BME280;69633;47.066;15.450;2023-07-08T02:44:55;98189.97;;;17.64;67.69
80321;BME280;69633;47.066;15.450;2023-07-08T02:47:21;98183.88;;;17.67;67.59
80321;BME280;69633;47.066;15.450;2023-07-08T02:49:48;98184.72;;;17.71;67.41
80321;BME280;69633;47.066;15.450;2023-07-08T02:52:15;98187.81;;;17.73;67.36
80321;BME280;69633;47.066;15.450;2023-07-08T02:54:42;98188.59;;;17.74;67.64
80321;BME280;69633;47.066;15.450;2023-07-08T02:57:08;98185.56;;;17.75;67.22
80321;BME280;69633;47.066;15.450;2023-07-08T02:59:36;98186.69;;;17.74;67.34
80321;BME280;69633;47.066;15.450;2023-07-08T03:02:02;98183.22;;;17.74;67.58
80321;BME280;69633;47.066;15.450;2023-07-08T03:04:28;98186.28;;;17.72;67.63
80321;BME280;69633;47.066;15.450;2023-07-08T03:06:55;98183.09;;;17.67;68.13
80321;BME280;69633;47.066;15.450;2023-07-08T03:09:22;98180.44;;;17.48;68.88
80321;BME280;69633;47.066;15.450;2023-07-08T03:11:48;98177.91;;;17.32;69.34
80321;BME280;69633;47.066;15.450;2023-07-08T03:14:19;98182.13;;;17.14;69.87
80321;BME280;69633;47.066;15.450;2023-07-08T03:16:46;98183.22;;;17.09;70.13
80321;BME280;69633;47.066;15.450;2023-07-08T03:19:12;98179.19;;;17.00;70.42
80321;BME280;69633;47.066;15.450;2023-07-08T03:21:41;98175.41;;;17.01;70.53
80321;BME280;69633;47.066;15.450;2023-07-08T03:24:13;98173.56;;;17.05;70.45
80321;BME280;69633;47.066;15.450;2023-07-08T03:26:40;98173.69;;;17.12;69.97
80321;BME280;69633;47.066;15.450;2023-07-08T03:29:10;98168.44;;;17.19;69.27
80321;BME280;69633;47.066;15.450;2023-07-08T03:31:40;98177.47;;;17.30;69.24
80321;BME280;69633;47.066;15.450;2023-07-08T03:34:09;98184.44;;;17.34;68.84
80321;BME280;69633;47.066;15.450;2023-07-08T03:36:36;98176.88;;;17.40;68.48
80321;BME280;69633;47.066;15.450;2023-07-08T03:39:07;98174.75;;;17.49;68.52
80321;BME280;69633;47.066;15.450;2023-07-08T03:41:34;98179.38;;;17.52;68.51
80321;BME280;69633;47.066;15.450;2023-07-08T03:44:00;98180.44;;;17.48;68.80
80321;BME280;69633;47.066;15.450;2023-07-08T03:46:27;98181.09;;;17.41;68.97
80321;BME280;69633;47.066;15.450;2023-07-08T03:48:53;98173.81;;;17.19;69.58
80321;BME280;69633;47.066;15.450;2023-07-08T03:51:39;98176.72;;;17.10;69.98
80321;BME280;69633;47.066;15.450;2023-07-08T03:54:09;98182.00;;;17.07;69.93
80321;BME280;69633;47.066;15.450;2023-07-08T03:56:39;98177.50;;;17.11;69.73
80321;BME280;69633;47.066;15.450;2023-07-08T03:59:05;98183.56;;;17.08;70.02
80321;BME280;69633;47.066;15.450;2023-07-08T04:01:31;98194.09;;;16.97;70.59
80321;BME280;69633;47.066;15.450;2023-07-08T04:03:59;98191.06;;;16.99;70.34
80321;BME280;69633;47.066;15.450;2023-07-08T04:06:26;98185.84;;;17.06;69.87
80321;BME280;69633;47.066;15.450;2023-07-08T04:08:54;98194.44;;;17.15;69.83
80321;BME280;69633;47.066;15.450;2023-07-08T04:11:23;98179.19;;;17.19;69.26
80321;BME280;69633;47.066;15.450;2023-07-08T04:13:50;98172.38;;;17.25;69.18
80321;BME280;69633;47.066;15.450;2023-07-08T04:16:25;98174.66;;;17.23;69.29
80321;BME280;69633;47.066;15.450;2023-07-08T04:18:56;98165.88;;;17.26;69.41
80321;BME280;69633;47.066;15.450;2023-07-08T04:21:24;98170.97;;;17.31;68.79
80321;BME280;69633;47.066;15.450;2023-07-08T04:23:54;98162.59;;;17.36;68.88
80321;BME280;69633;47.066;15.450;2023-07-08T04:26:21;98156.22;;;17.21;69.58
80321;BME280;69633;47.066;15.450;2023-07-08T04:28:48;98159.22;;;17.16;69.83
80321;BME280;69633;47.066;15.450;2023-07-08T04:31:13;98161.25;;;17.23;69.78
80321;BME280;69633;47.066;15.450;2023-07-08T04:33:40;98160.97;;;17.28;69.39
80321;BME280;69633;47.066;15.450;2023-07-08T04:36:16;98154.16;;;17.34;69.47
80321;BME280;69633;47.066;15.450;2023-07-08T04:38:44;98144.38;;;17.45;69.08
80321;BME280;69633;47.066;15.450;2023-07-08T04:41:13;98146.03;;;17.53;68.80
80321;BME280;69633;47.066;15.450;2023-07-08T04:43:42;98150.16;;;17.70;68.23
80321;BME280;69633;47.066;15.450;2023-07-08T04:46:21;98139.63;;;17.80;67.77
80321;BME280;69633;47.066;15.450;2023-07-08T04:49:05;98142.59;;;17.75;67.93
80321;BME280;69633;47.066;15.450;2023-07-08T04:51:33;98133.41;;;17.76;67.97
80321;BME280;69633;47.066;15.450;2023-07-08T04:54:04;98135.22;;;17.95;67.41
80321;BME280;69633;47.066;15.450;2023-07-08T04:59:23;98138.47;;;18.08;66.97
80321;BME280;69633;47.066;15.450;2023-07-08T05:01:51;98135.50;;;18.16;66.39
80321;BME280;69633;47.066;15.450;2023-07-08T05:04:20;98120.03;;;18.36;65.85
80321;BME280;69633;47.066;15.450;2023-07-08T05:06:47;98126.63;;;18.42;65.23
80321;BME280;69633;47.066;15.450;2023-07-08T05:09:14;98120.19;;;18.47;65.04
80321;BME280;69633;47.066;15.450;2023-07-08T05:11:41;98120.63;;;18.52;64.95
80321;BME280;69633;47.066;15.450;2023-07-08T05:14:10;98128.25;;;18.76;64.06
80321;BME280;69633;47.066;15.450;2023-07-08T05:16:37;98120.75;;;18.93;63.15
80321;BME280;69633;47.066;15.450;2023-07-08T05:19:03;98117.41;;;19.06;63.03
80321;BME280;69633;47.066;15.450;2023-07-08T05:21:31;98124.31;;;19.04;62.82
80321;BME280;69633;47.066;15.450;2023-07-08T05:24:04;98125.81;;;19.01;62.74
80321;BME280;69633;47.066;15.450;2023-07-08T05:26:32;98130.19;;;19.16;62.85
80321;BME280;69633;47.066;15.450;2023-07-08T05:28:58;98134.47;;;19.21;62.60
80321;BME280;69633;47.066;15.450;2023-07-08T05:31:25;98138.78;;;19.29;61.93
80321;BME280;69633;47.066;15.450;2023-07-08T05:33:51;98136.94;;;19.40;61.45
80321;BME280;69633;47.066;15.450;2023-07-08T05:36:17;98148.63;;;19.51;61.46
80321;BME280;69633;47.066;15.450;2023-07-08T05:38:44;98137.09;;;19.54;60.88
80321;BME280;69633;47.066;15.450;2023-07-08T05:41:11;98141.47;;;19.69;61.26
80321;BME280;69633;47.066;15.450;2023-07-08T05:43:39;98135.03;;;19.85;59.86
80321;BME280;69633;47.066;15.450;2023-07-08T05:46:05;98138.13;;;19.83;60.72
80321;BME280;69633;47.066;15.450;2023-07-08T05:48:32;98135.06;;;19.88;60.00
80321;BME280;69633;47.066;15.450;2023-07-08T05:50:59;98140.88;;;19.94;59.85
80321;BME280;69633;47.066;15.450;2023-07-08T05:53:26;98136.31;;;20.01;59.52
80321;BME280;69633;47.066;15.450;2023-07-08T05:55:53;98142.09;;;20.07;59.50
80321;BME280;69633;47.066;15.450;2023-07-08T05:58:21;98148.72;;;20.16;59.44
80321;BME280;69633;47.066;15.450;2023-07-08T06:00:55;98136.06;;;20.24;59.28
80321;BME280;69633;47.066;15.450;2023-07-08T06:03:24;98139.25;;;20.44;58.36
80321;BME280;69633;47.066;15.450;2023-07-08T06:05:51;98131.59;;;20.56;58.22
80321;BME280;69633;47.066;15.450;2023-07-08T06:08:16;98136.66;;;20.61;57.89
80321;BME280;69633;47.066;15.450;2023-07-08T06:10:45;98128.59;;;20.68;57.93
80321;BME280;69633;47.066;15.450;2023-07-08T06:13:12;98133.25;;;20.82;57.40
80321;BME280;69633;47.066;15.450;2023-07-08T06:15:40;98137.09;;;20.85;56.64
80321;BME280;69633;47.066;15.450;2023-07-08T06:18:07;98139.88;;;21.02;56.88
80321;BME280;69633;47.066;15.450;2023-07-08T06:20:34;98141.84;;;21.16;56.36
80321;BME280;69633;47.066;15.450;2023-07-08T06:23:00;98141.13;;;21.54;55.51
80321;BME280;69633;47.066;15.450;2023-07-08T06:25:28;98140.34;;;21.86;54.88
80321;BME280;69633;47.066;15.450;2023-07-08T06:27:55;98131.47;;;21.67;54.50
80321;BME280;69633;47.066;15.450;2023-07-08T06:30:23;98131.06;;;21.87;54.16
80321;BME280;69633;47.066;15.450;2023-07-08T06:32:50;98129.53;;;22.10;53.52
80321;BME280;69633;47.066;15.450;2023-07-08T06:35:18;98125.97;;;22.35;53.16
80321;BME280;69633;47.066;15.450;2023-07-08T06:37:45;98127.44;;;22.53;52.34
80321;BME280;69633;47.066;15.450;2023-07-08T06:40:11;98117.47;;;22.33;53.02
80321;BME280;69633;47.066;15.450;2023-07-08T06:42:37;98124.06;;;22.21;53.59
80321;BME280;69633;47.066;15.450;2023-07-08T06:45:03;98115.53;;;22.40;53.05
80321;BME280;69633;47.066;15.450;2023-07-08T06:47:31;98120.88;;;22.54;52.78
80321;BME280;69633;47.066;15.450;2023-07-08T06:49:58;98111.47;;;22.84;51.84
80321;BME280;69633;47.066;15.450;2023-07-08T06:52:28;98118.19;;;23.27;51.00
80321;BME280;69633;47.066;15.450;2023-07-08T06:55:06;98107.16;;;23.55;50.53
80321;BME280;69633;47.066;15.450;2023-07-08T06:57:34;98114.38;;;23.73;49.72
80321;BME280;69633;47.066;15.450;2023-07-08T07:00:01;98097.22;;;23.42;49.57
80321;BME280;69633;47.066;15.450;2023-07-08T07:02:29;98103.66;;;23.55;49.20
80321;BME280;69633;47.066;15.450;2023-07-08T07:04:56;98096.47;;;23.82;48.63
80321;BME280;69633;47.066;15.450;2023-07-08T07:07:23;98093.22;;;23.98;47.83
80321;BME280;69633;47.066;15.450;2023-07-08T07:09:51;98091.88;;;24.17;47.61
80321;BME280;69633;47.066;15.450;2023-07-08T07:12:17;98094.84;;;24.29;47.15
80321;BME280;69633;47.066;15.450;2023-07-08T07:14:45;98085.56;;;24.57;46.75
80321;BME280;69633;47.066;15.450;2023-07-08T07:17:13;98093.84;;;25.07;45.45
80321;BME280;69633;47.066;15.450;2023-07-08T07:19:40;98086.59;;;25.24;45.57
80321;BME280;69633;47.066;15.450;2023-07-08T07:22:05;98087.09;;;25.42;45.32
80321;BME280;69633;47.066;15.450;2023-07-08T07:24:32;98089.13;;;25.11;45.35
80321;BME280;69633;47.066;15.450;2023-07-08T07:26:59;98091.84;;;25.38;45.00
80321;BME280;69633;47.066;15.450;2023-07-08T07:29:25;98092.81;;;25.24;45.21
80321;BME280;69633;47.066;15.450;2023-07-08T07:31:52;98091.66;;;25.48;45.04
80321;BME280;69633;47.066;15.450;2023-07-08T07:34:19;98098.75;;;25.89;43.92
80321;BME280;69633;47.066;15.450;2023-07-08T07:36:45;98093.31;;;25.89;43.27
80321;BME280;69633;47.066;15.450;2023-07-08T07:39:12;98092.63;;;26.05;43.08
80321;BME280;69633;47.066;15.450;2023-07-08T07:41:37;98093.41;;;26.05;42.23
80321;BME280;69633;47.066;15.450;2023-07-08T07:44:03;98077.78;;;26.09;42.69
80321;BME280;69633;47.066;15.450;2023-07-08T07:46:30;98076.34;;;26.24;42.77
80321;BME280;69633;47.066;15.450;2023-07-08T07:48:56;98082.53;;;26.44;42.98
80321;BME280;69633;47.066;15.450;2023-07-08T07:51:23;98082.13;;;26.82;42.26
80321;BME280;69633;47.066;15.450;2023-07-08T07:53:49;98081.38;;;27.17;41.32
80321;BME280;69633;47.066;15.450;2023-07-08T07:56:15;98088.16;;;26.93;42.26
80321;BME280;69633;47.066;15.450;2023-07-08T07:58:41;98081.44;;;26.78;42.09
80321;BME280;69633;47.066;15.450;2023-07-08T08:01:08;98082.38;;;26.91;42.13
80321;BME280;69633;47.066;15.450;2023-07-08T08:03:34;98078.72;;;26.98;39.85
80321;BME280;69633;47.066;15.450;2023-07-08T08:05:59;98073.44;;;27.23;40.12
80321;BME280;69633;47.066;15.450;2023-07-08T08:08:27;98069.38;;;27.47;40.31
80321;BME280;69633;47.066;15.450;2023-07-08T08:10:53;98061.59;;;27.62;40.26
80321;BME280;69633;47.066;15.450;2023-07-08T08:13:19;98059.69;;;27.75;39.43
80321;BME280;69633;47.066;15.450;2023-07-08T08:15:45;98064.25;;;27.94;38.01
80321;BME280;69633;47.066;15.450;2023-07-08T08:18:12;98061.34;;;27.72;38.17
80321;BME280;69633;47.066;15.450;2023-07-08T08:20:39;98070.63;;;27.43;38.28
80321;BME280;69633;47.066;15.450;2023-07-08T08:23:08;98067.72;;;27.33;39.63
80321;BME280;69633;47.066;15.450;2023-07-08T08:25:34;98066.03;;;27.56;40.15
80321;BME280;69633;47.066;15.450;2023-07-08T08:28:01;98066.50;;;27.83;36.87
80321;BME280;69633;47.066;15.450;2023-07-08T08:30:27;98062.47;;;27.59;35.31
80321;BME280;69633;47.066;15.450;2023-07-08T08:32:54;98058.47;;;27.92;35.05
80321;BME280;69633;47.066;15.450;2023-07-08T08:35:19;98050.00;;;28.03;34.98
80321;BME280;69633;47.066;15.450;2023-07-08T08:37:46;98057.31;;;27.77;35.19
80321;BME280;69633;47.066;15.450;2023-07-08T08:40:19;98051.66;;;27.84;36.41
80321;BME280;69633;47.066;15.450;2023-07-08T08:43:06;98063.28;;;28.01;35.38
80321;BME280;69633;47.066;15.450;2023-07-08T08:51:52;98057.97;;;28.39;36.16
80321;BME280;69633;47.066;15.450;2023-07-08T08:54:18;98057.41;;;28.02;37.37
80321;BME280;69633;47.066;15.450;2023-07-08T09:00:07;98055.84;;;28.59;36.51
80321;BME280;69633;47.066;15.450;2023-07-08T09:05:18;98069.66;;;28.80;36.39
80321;BME280;69633;47.066;15.450;2023-07-08T09:13:52;98076.22;;;28.83;33.39
80321;BME280;69633;47.066;15.450;2023-07-08T09:19:33;98067.03;;;28.77;33.67
80321;BME280;69633;47.066;15.450;2023-07-08T09:24:50;98057.41;;;28.85;33.77
80321;BME280;69633;47.066;15.450;2023-07-08T09:27:17;98055.19;;;28.67;34.56
80321;BME280;69633;47.066;15.450;2023-07-08T09:29:48;98059.19;;;28.50;35.64
80321;BME280;69633;47.066;15.450;2023-07-08T09:32:34;98070.53;;;28.36;35.20
80321;BME280;69633;47.066;15.450;2023-07-08T09:35:06;98076.78;;;28.37;35.23
80321;BME280;69633;47.066;15.450;2023-07-08T09:37:37;98071.25;;;28.65;34.95
80321;BME280;69633;47.066;15.450;2023-07-08T09:42:44;98065.59;;;29.10;34.57
80321;BME280;69633;47.066;15.450;2023-07-08T09:45:16;98072.16;;;28.88;35.55
80321;BME280;69633;47.066;15.450;2023-07-08T09:47:46;98058.50;;;28.75;35.84
80321;BME280;69633;47.066;15.450;2023-07-08T09:53:04;98048.00;;;28.99;34.83
80321;BME280;69633;47.066;15.450;2023-07-08T09:55:31;98036.94;;;29.15;35.07
80321;BME280;69633;47.066;15.450;2023-07-08T09:57:59;98032.78;;;29.10;35.44
80321;BME280;69633;47.066;15.450;2023-07-08T10:00:32;98039.75;;;29.37;35.25
80321;BME280;69633;47.066;15.450;2023-07-08T10:03:23;98044.97;;;29.56;34.88
80321;BME280;69633;47.066;15.450;2023-07-08T10:05:53;98035.94;;;29.21;34.49
80321;BME280;69633;47.066;15.450;2023-07-08T10:08:28;98040.09;;;29.13;35.39
80321;BME280;69633;47.066;15.450;2023-07-08T10:11:12;98038.59;;;29.12;35.03
80321;BME280;69633;47.066;15.450;2023-07-08T10:13:45;98033.13;;;29.12;35.96
80321;BME280;69633;47.066;15.450;2023-07-08T10:16:32;98038.81;;;29.31;35.49
80321;BME280;69633;47.066;15.450;2023-07-08T10:19:01;98032.31;;;29.50;35.06
80321;BME280;69633;47.066;15.450;2023-07-08T10:37:00;98018.16;;;29.04;34.17
80321;BME280;69633;47.066;15.450;2023-07-08T10:57:14;98024.31;;;29.77;35.01
80321;BME280;69633;47.066;15.450;2023-07-08T10:59:55;98017.78;;;29.96;34.99
80321;BME280;69633;47.066;15.450;2023-07-08T11:08:22;97997.53;;;29.72;35.63
80321;BME280;69633;47.066;15.450;2023-07-08T11:13:52;98003.47;;;29.92;34.88
80321;BME280;69633;47.066;15.450;2023-07-08T11:16:37;97993.44;;;30.20;34.27
80321;BME280;69633;47.066;15.450;2023-07-08T11:21:58;97995.03;;;30.30;34.29
80321;BME280;69633;47.066;15.450;2023-07-08T11:27:25;97989.69;;;30.27;34.93
80321;BME280;69633;47.066;15.450;2023-07-08T11:32:38;97988.50;;;30.67;34.75
80321;BME280;69633;47.066;15.450;2023-07-08T11:35:16;97994.41;;;30.48;34.75
80321;BME280;69633;47.066;15.450;2023-07-08T11:37:46;97997.97;;;30.66;34.46
80321;BME280;69633;47.066;15.450;2023-07-08T11:40:31;97993.84;;;30.71;34.16
80321;BME280;69633;47.066;15.450;2023-07-08T11:43:05;97987.28;;;31.08;33.75
80321;BME280;69633;47.066;15.450;2023-07-08T11:45:38;97989.66;;;31.55;33.86
80321;BME280;69633;47.066;15.450;2023-07-08T11:50:49;97995.41;;;32.03;32.96
80321;BME280;69633;47.066;15.450;2023-07-08T11:59:32;97968.16;;;31.63;33.36
80321;BME280;69633;47.066;15.450;2023-07-08T12:02:26;97978.19;;;31.93;32.98
80321;BME280;69633;47.066;15.450;2023-07-08T12:05:11;97983.34;;;32.28;32.76
80321;BME280;69633;47.066;15.450;2023-07-08T12:07:47;97976.50;;;32.05;32.94
80321;BME280;69633;47.066;15.450;2023-07-08T12:13:19;97983.97;;;31.95;33.94
80321;BME280;69633;47.066;15.450;2023-07-08T12:15:47;97969.19;;;31.84;33.05
80321;BME280;69633;47.066;15.450;2023-07-08T12:18:27;97960.19;;;31.83;33.63
80321;BME280;69633;47.066;15.450;2023-07-08T12:21:00;97964.28;;;32.57;33.19
80321;BME280;69633;47.066;15.450;2023-07-08T12:23:28;97958.56;;;32.37;32.34
80321;BME280;69633;47.066;15.450;2023-07-08T12:25:56;97947.63;;;32.19;33.67
80321;BME280;69633;47.066;15.450;2023-07-08T12:28:28;97950.53;;;32.15;33.39
80321;BME280;69633;47.066;15.450;2023-07-08T12:30:53;97951.66;;;32.50;33.44
80321;BME280;69633;47.066;15.450;2023-07-08T12:33:41;97951.59;;;32.69;32.92
80321;BME280;69633;47.066;15.450;2023-07-08T12:36:20;97949.34;;;32.49;32.92
80321;BME280;69633;47.066;15.450;2023-07-08T12:38:47;97941.91;;;32.73;32.50
80321;BME280;69633;47.066;15.450;2023-07-08T12:41:29;97938.06;;;33.03;33.26
80321;BME280;69633;47.066;15.450;2023-07-08T12:44:13;97931.69;;;32.74;33.42
80321;BME280;69633;47.066;15.450;2023-07-08T12:46:40;97932.56;;;32.80;32.98
80321;BME280;69633;47.066;15.450;2023-07-08T12:49:08;97935.19;;;32.74;32.48
80321;BME280;69633;47.066;15.450;2023-07-08T12:51:33;97927.72;;;32.33;33.38
80321;BME280;69633;47.066;15.450;2023-07-08T12:54:00;97927.41;;;32.96;32.68
80321;BME280;69633;47.066;15.450;2023-07-08T12:56:26;97921.06;;;33.14;32.00
80321;BME280;69633;47.066;15.450;2023-07-08T12:58:56;97925.91;;;34.31;30.28
80321;BME280;69633;47.066;15.450;2023-07-08T13:01:30;97933.41;;;35.35;29.37
80321;BME280;69633;47.066;15.450;2023-07-08T13:04:02;97931.59;;;35.32;29.20
80321;BME280;69633;47.066;15.450;2023-07-08T13:06:31;97931.28;;;35.70;28.60
80321;BME280;69633;47.066;15.450;2023-07-08T13:09:21;97925.00;;;36.58;28.05
80321;BME280;69633;47.066;15.450;2023-07-08T13:11:50;97924.66;;;36.93;27.30
80321;BME280;69633;47.066;15.450;2023-07-08T13:14:22;97922.16;;;36.95;27.81
80321;BME280;69633;47.066;15.450;2023-07-08T13:16:50;97933.06;;;36.67;27.40
80321;BME280;69633;47.066;15.450;2023-07-08T13:19:18;97929.16;;;36.48;27.91
80321;BME280;69633;47.066;15.450;2023-07-08T13:21:45;97926.91;;;36.52;27.99
80321;BME280;69633;47.066;15.450;2023-07-08T13:24:12;97919.69;;;37.03;27.03
80321;BME280;69633;47.066;15.450;2023-07-08T13:26:39;97921.16;;;36.93;26.68
80321;BME280;69633;47.066;15.450;2023-07-08T13:29:16;97917.00;;;36.71;27.31
80321;BME280;69633;47.066;15.450;2023-07-08T13:31:48;97914.09;;;36.92;27.75
80321;BME280;69633;47.066;15.450;2023-07-08T13:34:20;97923.88;;;36.82;27.22
80321;BME280;69633;47.066;15.450;2023-07-08T13:36:54;97915.03;;;36.77;27.22
80321;BME280;69633;47.066;15.450;2023-07-08T13:39:38;97913.03;;;36.84;26.73
80321;BME280;69633;47.066;15.450;2023-07-08T13:42:08;97908.75;;;36.40;27.72
80321;BME280;69633;47.066;15.450;2023-07-08T13:44:46;97904.13;;;35.95;28.35
80321;BME280;69633;47.066;15.450;2023-07-08T13:47:31;97908.59;;;36.18;27.85
80321;BME280;69633;47.066;15.450;2023-07-08T13:50:19;97908.22;;;36.36;27.56
80321;BME280;69633;47.066;15.450;2023-07-08T13:52:54;97898.22;;;36.44;27.26
80321;BME280;69633;47.066;15.450;2023-07-08T13:55:22;97892.53;;;36.59;27.81
80321;BME280;69633;47.066;15.450;2023-07-08T13:58:01;97897.38;;;37.23;27.25
80321;BME280;69633;47.066;15.450;2023-07-08T14:00:38;97894.63;;;37.34;27.14
80321;BME280;69633;47.066;15.450;2023-07-08T14:03:10;97895.31;;;37.07;26.96
80321;BME280;69633;47.066;15.450;2023-07-08T14:05:39;97891.06;;;37.28;27.44
80321;BME280;69633;47.066;15.450;2023-07-08T14:08:17;97895.38;;;37.35;27.06
80321;BME280;69633;47.066;15.450;2023-07-08T14:10:45;97876.81;;;37.57;27.15
80321;BME280;69633;47.066;15.450;2023-07-08T14:13:12;97886.50;;;37.14;27.35
80321;BME280;69633;47.066;15.450;2023-07-08T14:15:39;97883.72;;;37.08;27.22
80321;BME280;69633;47.066;15.450;2023-07-08T14:18:09;97878.72;;;37.23;27.22
80321;BME280;69633;47.066;15.450;2023-07-08T14:20:35;97881.47;;;37.07;27.63
80321;BME280;69633;47.066;15.450;2023-07-08T14:23:03;97878.00;;;36.69;27.66
80321;BME280;69633;47.066;15.450;2023-07-08T14:25:29;97883.88;;;36.09;28.74
80321;BME280;69633;47.066;15.450;2023-07-08T14:27:55;97881.75;;;35.01;29.57
80321;BME280;69633;47.066;15.450;2023-07-08T14:30:23;97879.28;;;34.82;29.74
80321;BME280;69633;47.066;15.450;2023-07-08T14:32:49;97874.09;;;34.35;30.44
80321;BME280;69633;47.066;15.450;2023-07-08T14:35:34;97874.16;;;33.62;31.41
80321;BME280;69633;47.066;15.450;2023-07-08T14:37:59;97870.22;;;33.39;31.29
80321;BME280;69633;47.066;15.450;2023-07-08T14:40:44;97875.75;;;33.39;32.29
80321;BME280;69633;47.066;15.450;2023-07-08T14:43:29;97884.22;;;33.12;31.83
80321;BME280;69633;47.066;15.450;2023-07-08T14:45:57;97875.22;;;32.87;32.27
80321;BME280;69633;47.066;15.450;2023-07-08T14:48:27;97868.31;;;32.92;32.42